createdAt,value
2022-12-15T00:02:17.700Z,-7.20
2022-12-15T00:05:00.638Z,-7.18
2022-12-15T00:07:43.893Z,-7.14
2022-12-15T00:10:41.764Z,-7.35
2022-12-15T00:13:45.601Z,-7.49
2022-12-15T00:16:28.934Z,-7.55
2022-12-15T00:19:12.494Z,-7.48
2022-12-15T00:21:55.368Z,-7.57
2022-12-15T00:24:38.853Z,-7.38
2022-12-15T00:27:24.627Z,-7.35
2022-12-15T00:30:08.058Z,-7.31
2022-12-15T00:32:51.193Z,-7.26
2022-12-15T00:35:34.720Z,-7.43
2022-12-15T00:38:23.187Z,-7.44
2022-12-15T00:40:59.249Z,-7.47
2022-12-15T00:43:32.951Z,-7.32
2022-12-15T00:46:18.392Z,-7.35
2022-12-15T00:48:49.682Z,-7.35
2022-12-15T00:51:18.638Z,-7.51
2022-12-15T00:54:02.369Z,-7.54
2022-12-15T00:56:46.572Z,-7.55
2022-12-15T00:59:32.764Z,-7.61
2022-12-15T01:02:16.874Z,-7.72
2022-12-15T01:05:00.186Z,-7.78
2022-12-15T01:07:43.969Z,-7.79
2022-12-15T01:10:33.159Z,-7.96
2022-12-15T01:13:19.830Z,-7.97
2022-12-15T01:16:05.029Z,-7.96
2022-12-15T01:18:49.597Z,-8.11
2022-12-15T01:21:24.094Z,-8.14
2022-12-15T01:23:57.995Z,-8.26
2022-12-15T01:26:28.276Z,-8.25
2022-12-15T01:29:03.279Z,-8.26
2022-12-15T01:31:40.996Z,-8.32
2022-12-15T01:34:11.632Z,-8.44
2022-12-15T01:36:41.695Z,-8.26
2022-12-15T01:39:16.940Z,-7.97
2022-12-15T01:41:44.545Z,-7.91
2022-12-15T01:44:19.892Z,-8.15
2022-12-15T01:46:56.898Z,-8.56
2022-12-15T01:49:31.105Z,-8.39
2022-12-15T01:52:03.683Z,-8.22
2022-12-15T01:54:38.107Z,-8.31
2022-12-15T01:57:16.916Z,-8.22
2022-12-15T01:59:51.407Z,-8.30
2022-12-15T02:02:27.679Z,-8.33
2022-12-15T02:05:01.277Z,-8.38
2022-12-15T02:07:31.674Z,-8.55
2022-12-15T02:10:06.136Z,-8.67
2022-12-15T02:12:43.324Z,-8.65
2022-12-15T02:15:22.236Z,-8.60
2022-12-15T02:18:04.830Z,-8.63
2022-12-15T02:20:47.749Z,-8.62
2022-12-15T02:23:48.473Z,-8.78
2022-12-15T02:27:12.643Z,-8.88
2022-12-15T02:30:27.693Z,-8.91
2022-12-15T02:33:11.921Z,-8.85
2022-12-15T02:35:56.142Z,-8.94
2022-12-15T02:38:39.877Z,-8.79
2022-12-15T02:41:38.654Z,-8.89
2022-12-15T02:44:15.047Z,-8.97
2022-12-15T02:47:02.798Z,-9.10
2022-12-15T02:49:49.825Z,-9.28
2022-12-15T02:52:32.858Z,-9.32
2022-12-15T02:55:18.020Z,-9.41
2022-12-15T02:57:56.958Z,-9.26
2022-12-15T03:00:27.466Z,-9.26
2022-12-15T03:02:58.765Z,-9.39
2022-12-15T03:05:34.942Z,-9.07
2022-12-15T03:08:04.851Z,-9.25
2022-12-15T03:10:35.265Z,-9.19
2022-12-15T03:13:05.773Z,-8.86
2022-12-15T03:15:36.066Z,-8.69
2022-12-15T03:18:06.149Z,-8.61
2022-12-15T03:20:39.027Z,-8.57
2022-12-15T03:23:08.949Z,-8.79
2022-12-15T03:25:39.234Z,-9.06
2022-12-15T03:28:09.206Z,-9.23
2022-12-15T03:30:39.474Z,-9.37
2022-12-15T03:33:09.422Z,-9.39
2022-12-15T03:35:44.922Z,-9.42
2022-12-15T03:38:14.942Z,-9.51
2022-12-15T03:40:45.472Z,-9.51
2022-12-15T03:43:15.467Z,-9.61
2022-12-15T03:45:46.252Z,-9.42
2022-12-15T03:48:16.213Z,-9.46
2022-12-15T03:50:51.624Z,-9.53
2022-12-15T03:53:21.604Z,-9.65
2022-12-15T03:55:52.080Z,-9.61
2022-12-15T03:58:22.015Z,-9.56
2022-12-15T04:00:52.235Z,-9.44
2022-12-15T04:03:22.382Z,-9.56
2022-12-15T04:05:55.290Z,-9.45
2022-12-15T04:08:26.758Z,-9.68
2022-12-15T04:10:57.346Z,-9.69
2022-12-15T04:13:27.759Z,-9.69
2022-12-15T04:15:58.311Z,-9.73
2022-12-15T04:18:28.554Z,-10.05
2022-12-15T04:20:59.098Z,-9.90
2022-12-15T04:23:29.829Z,-9.92
2022-12-15T04:26:13.088Z,-9.95
2022-12-15T04:28:55.769Z,-10.06
2022-12-15T04:31:42.374Z,-9.89
2022-12-15T04:34:28.438Z,-9.91
2022-12-15T04:37:14.415Z,-9.89
2022-12-15T04:40:00.113Z,-9.99
2022-12-15T04:42:44.993Z,-9.89
2022-12-15T04:45:28.599Z,-9.86
2022-12-15T04:48:11.576Z,-9.96
2022-12-15T04:50:54.214Z,-10.01
2022-12-15T04:53:39.563Z,-10.01
2022-12-15T04:56:25.802Z,-10.12
2022-12-15T04:59:08.468Z,-10.23
2022-12-15T05:01:50.906Z,-10.29
2022-12-15T05:04:33.773Z,-10.13
2022-12-15T05:07:16.219Z,-10.06
2022-12-15T05:10:03.526Z,-10.16
2022-12-15T05:12:46.271Z,-10.13
2022-12-15T05:15:29.250Z,-9.92
2022-12-15T05:18:11.714Z,-9.81
2022-12-15T05:20:54.722Z,-10.00
2022-12-15T05:23:37.124Z,-10.02
2022-12-15T05:26:22.476Z,-10.19
2022-12-15T05:29:04.834Z,-10.01
2022-12-15T05:31:52.223Z,-9.74
2022-12-15T05:34:23.990Z,-10.05
2022-12-15T05:36:54.466Z,-10.09
2022-12-15T05:39:24.802Z,-10.25
2022-12-15T05:41:58.888Z,-10.34
2022-12-15T05:44:29.333Z,-10.23
2022-12-15T05:46:59.583Z,-10.34
2022-12-15T05:49:29.464Z,-10.03
2022-12-15T05:51:59.886Z,-9.94
2022-12-15T05:54:29.881Z,-10.18
2022-12-15T05:57:02.707Z,-9.91
2022-12-15T05:59:32.729Z,-10.16
2022-12-15T06:02:03.069Z,-10.03
2022-12-15T06:04:33.471Z,-10.04
2022-12-15T06:07:03.737Z,-9.78
2022-12-15T06:09:33.909Z,-9.92
2022-12-15T06:12:07.207Z,-9.90
2022-12-15T06:14:37.186Z,-9.86
2022-12-15T06:17:07.354Z,-9.81
2022-12-15T06:19:37.455Z,-9.79
2022-12-15T06:22:08.181Z,-9.81
2022-12-15T06:24:38.115Z,-9.84
2022-12-15T06:27:11.348Z,-9.91
2022-12-15T06:29:41.309Z,-10.17
2022-12-15T06:32:11.569Z,-9.99
2022-12-15T06:34:41.619Z,-10.19
2022-12-15T06:37:12.351Z,-10.19
2022-12-15T06:39:42.677Z,-10.34
2022-12-15T06:42:15.529Z,-10.11
2022-12-15T06:44:45.474Z,-10.05
2022-12-15T06:47:19.581Z,-10.08
2022-12-15T06:49:49.511Z,-10.15
2022-12-15T06:52:20.057Z,-10.18
2022-12-15T06:54:50.318Z,-10.15
2022-12-15T06:57:23.234Z,-10.23
2022-12-15T06:59:53.173Z,-10.30
2022-12-15T07:02:28.908Z,-10.29
2022-12-15T07:05:01.084Z,-10.47
2022-12-15T07:07:31.604Z,-10.44
2022-12-15T07:10:01.699Z,-10.50
2022-12-15T07:12:35.969Z,-10.40
2022-12-15T07:15:08.094Z,-10.41
2022-12-15T07:17:38.650Z,-10.51
2022-12-15T07:20:10.123Z,-10.49
2022-12-15T07:22:42.953Z,-10.66
2022-12-15T07:25:15.672Z,-10.53
2022-12-15T07:27:48.845Z,-10.66
2022-12-15T07:30:20.370Z,-10.88
2022-12-15T07:32:51.393Z,-10.91
2022-12-15T07:35:21.907Z,-10.50
2022-12-15T07:37:52.381Z,-10.42
2022-12-15T07:40:22.352Z,-10.52
2022-12-15T07:42:55.203Z,-10.35
2022-12-15T07:45:25.267Z,-10.30
2022-12-15T07:47:55.607Z,-10.35
2022-12-15T07:50:25.635Z,-10.37
2022-12-15T07:52:56.121Z,-10.31
2022-12-15T07:55:50.096Z,-10.31
2022-12-15T07:58:19.191Z,-10.27
2022-12-15T08:00:49.254Z,-10.18
2022-12-15T08:03:19.667Z,-10.31
2022-12-15T08:05:49.661Z,-10.45
2022-12-15T08:08:20.066Z,-10.20
2022-12-15T08:10:50.274Z,-10.11
2022-12-15T08:13:52.886Z,-10.02
2022-12-15T08:16:13.494Z,-9.84
2022-12-15T08:18:43.814Z,-9.79
2022-12-15T08:21:14.627Z,-9.61
2022-12-15T08:23:44.977Z,-9.65
2022-12-15T08:26:17.573Z,-9.67
2022-12-15T08:28:50.455Z,-9.46
2022-12-15T08:31:22.970Z,-9.38
2022-12-15T08:33:53.967Z,-9.38
2022-12-15T08:36:24.304Z,-9.24
2022-12-15T08:38:54.629Z,-9.38
2022-12-15T08:41:27.089Z,-9.19
2022-12-15T08:44:01.457Z,-9.07
2022-12-15T08:46:33.821Z,-9.11
2022-12-15T08:49:05.326Z,-8.94
2022-12-15T08:51:35.989Z,-8.92
2022-12-15T08:54:06.459Z,-8.61
2022-12-15T08:56:38.252Z,-8.48
2022-12-15T08:59:12.404Z,-8.50
2022-12-15T09:01:49.021Z,-8.45
2022-12-15T09:04:20.203Z,-8.45
2022-12-15T09:06:51.185Z,-8.34
2022-12-15T09:09:22.294Z,-8.65
2022-12-15T09:11:52.991Z,-8.19
2022-12-15T09:14:29.500Z,-8.57
2022-12-15T09:17:00.318Z,-8.19
2022-12-15T09:19:31.179Z,-7.82
2022-12-15T09:22:01.486Z,-7.74
2022-12-15T09:24:35.033Z,-7.76
2022-12-15T09:27:06.372Z,-7.55
2022-12-15T09:29:39.520Z,-7.89
2022-12-15T09:32:13.995Z,-7.44
2022-12-15T09:34:45.038Z,-7.17
2022-12-15T09:37:17.230Z,-7.02
2022-12-15T09:39:48.571Z,-7.55
2022-12-15T09:42:26.002Z,-7.20
2022-12-15T09:45:04.391Z,-6.82
2022-12-15T09:47:43.654Z,-6.73
2022-12-15T09:50:17.016Z,-6.66
2022-12-15T09:52:51.741Z,-6.29
2022-12-15T09:55:26.101Z,-7.26
2022-12-15T09:57:57.876Z,-6.72
2022-12-15T10:00:37.185Z,-5.99
2022-12-15T10:03:31.476Z,-6.58
2022-12-15T10:06:18.299Z,-5.82
2022-12-15T10:08:55.751Z,-4.96
2022-12-15T10:11:38.771Z,-4.53
2022-12-15T10:14:19.408Z,-4.78
2022-12-15T10:17:02.449Z,-4.38
2022-12-15T10:19:40.844Z,-3.90
2022-12-15T10:22:15.995Z,-3.97
2022-12-15T10:27:57.474Z,-4.80
2022-12-15T10:30:27.832Z,-4.12
2022-12-15T10:33:05.128Z,-4.50
2022-12-15T10:35:39.661Z,-4.91
2022-12-15T10:38:24.347Z,-5.64
2022-12-15T10:40:57.063Z,-5.74
2022-12-15T10:43:30.916Z,-5.78
2022-12-15T10:46:08.363Z,-5.29
2022-12-15T10:48:41.625Z,-5.51
2022-12-15T10:51:20.934Z,-5.12
2022-12-15T10:53:52.435Z,-4.13
2022-12-15T10:56:32.428Z,-3.57
2022-12-15T10:59:06.267Z,-4.88
2022-12-15T11:01:37.562Z,-3.92
2022-12-15T11:04:28.430Z,-3.60
2022-12-15T11:07:02.882Z,-4.40
2022-12-15T11:09:36.917Z,-4.31
2022-12-15T11:12:38.023Z,-5.04
2022-12-15T11:15:45.667Z,-4.93
2022-12-15T11:18:38.044Z,-4.90
2022-12-15T11:21:16.702Z,-4.21
2022-12-15T11:23:59.445Z,-3.82
2022-12-15T11:26:42.292Z,-4.52
2022-12-15T11:29:52.114Z,-3.92
2022-12-15T11:32:25.727Z,-2.83
2022-12-15T11:34:56.218Z,-3.20
2022-12-15T11:37:43.708Z,-3.82
2022-12-15T11:40:37.134Z,-4.25
2022-12-15T11:43:29.925Z,-4.48
2022-12-15T11:46:26.019Z,-4.50
2022-12-15T11:49:31.173Z,-4.13
2022-12-15T11:52:06.071Z,-4.10
2022-12-15T11:54:43.169Z,-4.31
2022-12-15T11:57:32.129Z,-4.41
2022-12-15T12:00:08.818Z,-4.01
2022-12-15T12:03:00.554Z,-3.85
2022-12-15T12:05:50.769Z,-4.13
2022-12-15T12:08:38.365Z,-3.49
2022-12-15T12:11:16.358Z,-3.20
2022-12-15T12:13:58.967Z,-2.11
2022-12-15T12:16:39.967Z,-1.55
2022-12-15T12:19:14.396Z,-0.76
2022-12-15T12:21:50.762Z,-1.18
2022-12-15T12:24:27.825Z,-1.93
2022-12-15T12:27:04.500Z,-0.85
2022-12-15T12:29:37.293Z,-1.33
2022-12-15T12:32:15.526Z,-2.68
2022-12-15T12:35:32.043Z,-1.70
2022-12-15T12:37:59.442Z,-3.26
2022-12-15T12:40:38.399Z,-2.55
2022-12-15T12:43:14.491Z,-3.11
2022-12-15T12:45:52.471Z,-2.72
2022-12-15T12:48:30.654Z,-2.20
2022-12-15T12:51:15.617Z,-2.54
2022-12-15T12:53:46.186Z,-2.35
2022-12-15T12:56:34.515Z,-2.66
2022-12-15T12:59:29.123Z,-2.70
2022-12-15T13:02:00.721Z,-1.07
2022-12-15T13:04:44.400Z,-1.77
2022-12-15T13:07:31.797Z,-1.79
2022-12-15T13:10:19.807Z,-1.44
2022-12-15T13:12:52.946Z,-0.90
2022-12-15T13:15:43.029Z,-1.53
2022-12-15T13:18:18.569Z,-1.07
2022-12-15T13:20:51.212Z,-0.71
2022-12-15T13:23:42.863Z,0.15
2022-12-15T13:26:17.286Z,-0.58
2022-12-15T13:28:51.534Z,0.00
2022-12-15T13:31:49.721Z,0.03
2022-12-15T13:34:30.060Z,0.07
2022-12-15T13:37:02.465Z,0.46
2022-12-15T13:39:56.331Z,0.18
2022-12-15T13:45:44.794Z,-0.35
2022-12-15T13:48:42.696Z,-0.14
2022-12-15T13:51:24.626Z,-0.13
2022-12-15T13:54:00.278Z,-0.74
2022-12-15T13:56:48.988Z,-1.11
2022-12-15T13:59:45.302Z,-0.54
2022-12-15T14:02:29.531Z,-1.24
2022-12-15T14:05:17.526Z,-1.18
2022-12-15T14:07:54.574Z,-0.10
2022-12-15T14:10:27.662Z,0.25
2022-12-15T14:13:00.200Z,0.17
2022-12-15T14:15:33.349Z,0.06
2022-12-15T14:18:05.223Z,0.10
2022-12-15T14:20:43.831Z,-0.04
2022-12-15T14:23:22.020Z,0.12
2022-12-15T14:25:56.699Z,0.17
2022-12-15T14:28:32.764Z,0.02
2022-12-15T14:31:07.383Z,0.49
2022-12-15T14:33:40.735Z,0.04
2022-12-15T14:36:17.369Z,0.15
2022-12-15T14:38:51.630Z,-0.24
2022-12-15T14:41:24.761Z,-0.07
2022-12-15T14:44:36.560Z,-0.42
2022-12-15T14:46:51.065Z,-0.86
2022-12-15T14:49:23.974Z,-1.08
2022-12-15T14:52:02.200Z,-1.07
2022-12-15T14:54:38.657Z,-1.06
2022-12-15T14:57:17.304Z,-0.76
2022-12-15T14:59:49.112Z,-1.65
2022-12-15T15:02:26.832Z,-1.41
2022-12-15T15:03:05.640Z,0.25
2022-12-15T15:04:59.811Z,-1.12
2022-12-15T15:07:33.840Z,-1.12
2022-12-15T15:10:06.056Z,-1.38
2022-12-15T15:12:47.192Z,-1.57
2022-12-15T15:15:20.729Z,-1.81
2022-12-15T15:17:53.905Z,-2.05
2022-12-15T15:20:27.522Z,-2.00
2022-12-15T15:23:20.813Z,-2.05
2022-12-15T15:25:53.922Z,-2.23
2022-12-15T15:28:27.331Z,-2.40
2022-12-15T15:31:00.535Z,-2.52
2022-12-15T15:33:31.373Z,-2.63
2022-12-15T15:36:04.304Z,-3.06
2022-12-15T15:38:40.914Z,-2.70
2022-12-15T15:41:19.005Z,-2.39
2022-12-15T15:43:50.557Z,-2.22
2022-12-15T15:46:25.638Z,-2.63
2022-12-15T15:48:58.196Z,-2.64
2022-12-15T15:51:29.966Z,-2.44
2022-12-15T15:54:08.472Z,-2.12
2022-12-15T15:56:39.144Z,-2.17
2022-12-15T15:59:14.953Z,-2.19
2022-12-15T16:01:46.530Z,-2.04
2022-12-15T16:04:17.299Z,-2.30
2022-12-15T16:06:48.015Z,-2.39
2022-12-15T16:09:21.084Z,-2.45
2022-12-15T16:11:51.148Z,-2.65
2022-12-15T16:14:21.627Z,-2.98
2022-12-15T16:16:53.886Z,-3.40
2022-12-15T16:19:27.662Z,-3.60
2022-12-15T16:21:58.175Z,-3.28
2022-12-15T16:24:31.268Z,-3.05
2022-12-15T16:27:02.627Z,-2.85
2022-12-15T16:29:32.922Z,-3.01
2022-12-15T16:32:02.938Z,-3.45
2022-12-15T16:34:33.146Z,-3.17
2022-12-15T16:37:03.085Z,-3.08
2022-12-15T16:39:37.927Z,-3.30
2022-12-15T16:42:12.230Z,-3.15
2022-12-15T16:44:42.446Z,-3.11
2022-12-15T16:47:12.609Z,-3.11
2022-12-15T16:49:42.878Z,-3.16
2022-12-15T16:52:21.774Z,-3.44
2022-12-15T16:54:56.813Z,-3.32
2022-12-15T16:57:26.838Z,-3.29
2022-12-15T16:59:57.124Z,-3.47
2022-12-15T17:02:29.304Z,-3.60
2022-12-15T17:04:59.955Z,-3.60
2022-12-15T17:07:30.632Z,-3.62
2022-12-15T17:10:03.605Z,-3.61
2022-12-15T17:12:34.116Z,-3.87
2022-12-15T17:15:05.110Z,-4.00
2022-12-15T17:17:35.549Z,-4.01
2022-12-15T17:23:00.484Z,-3.83
2022-12-15T17:26:19.550Z,-3.81
2022-12-15T17:28:33.038Z,-3.87
2022-12-15T17:31:03.813Z,-4.11
2022-12-15T17:33:36.959Z,-4.22
2022-12-15T17:36:17.497Z,-4.08
2022-12-15T17:38:47.834Z,-4.06
2022-12-15T17:41:42.822Z,-4.21
2022-12-15T17:44:38.754Z,-4.14
2022-12-15T17:47:10.971Z,-4.33
2022-12-15T17:49:41.035Z,-4.43
2022-12-15T17:52:22.696Z,-4.39
2022-12-15T17:54:54.047Z,-4.61
2022-12-15T17:57:26.931Z,-4.47
2022-12-15T17:59:56.994Z,-4.56
2022-12-15T18:02:27.569Z,-4.38
2022-12-15T18:04:57.850Z,-4.26
2022-12-15T18:07:28.513Z,-4.37
2022-12-15T18:09:58.480Z,-4.44
2022-12-15T18:12:31.324Z,-4.37
2022-12-15T18:15:01.374Z,-4.46
2022-12-15T18:17:35.058Z,-4.40
2022-12-15T18:20:07.371Z,-4.56
2022-12-15T18:22:37.848Z,-4.48
2022-12-15T18:25:17.014Z,-4.50
2022-12-15T18:27:50.251Z,-4.58
2022-12-15T18:30:23.482Z,-4.57
2022-12-15T18:32:57.845Z,-4.58
2022-12-15T18:35:33.538Z,-4.67
2022-12-15T18:38:03.861Z,-4.72
2022-12-15T18:40:33.886Z,-4.94
2022-12-15T18:43:14.237Z,-4.90
2022-12-15T18:45:44.554Z,-4.85
2022-12-15T18:48:20.847Z,-5.12
2022-12-15T18:50:52.817Z,-5.13
2022-12-15T18:53:29.138Z,-5.02
2022-12-15T18:56:00.408Z,-5.02
2022-12-15T18:58:35.848Z,-4.92
2022-12-15T19:01:08.008Z,-4.95
2022-12-15T19:03:41.040Z,-4.95
2022-12-15T19:06:25.906Z,-4.97
2022-12-15T19:08:56.547Z,-5.06
2022-12-15T19:11:31.026Z,-5.02
2022-12-15T19:14:26.096Z,-5.07
2022-12-15T19:17:08.472Z,-5.07
2022-12-15T19:19:51.123Z,-5.09
2022-12-15T19:22:31.196Z,-5.08
2022-12-15T19:25:02.154Z,-5.16
2022-12-15T19:27:32.151Z,-5.09
2022-12-15T19:30:05.175Z,-5.12
2022-12-15T19:32:35.192Z,-5.09
2022-12-15T19:35:05.492Z,-5.32
2022-12-15T19:37:39.132Z,-5.25
2022-12-15T19:40:13.357Z,-5.30
2022-12-15T19:42:44.427Z,-5.46
2022-12-15T19:45:22.051Z,-5.29
2022-12-15T19:47:52.512Z,-5.22
2022-12-15T19:50:25.648Z,-5.31
2022-12-15T19:53:01.310Z,-5.42
2022-12-15T19:55:35.172Z,-5.43
2022-12-15T19:58:26.914Z,-5.47
2022-12-15T20:01:03.449Z,-5.40
2022-12-15T20:03:37.124Z,-5.44
2022-12-15T20:06:17.184Z,-5.39
2022-12-15T20:08:50.285Z,-5.42
2022-12-15T20:11:23.533Z,-5.45
2022-12-15T20:13:55.263Z,-5.47
2022-12-15T20:16:28.934Z,-5.42
2022-12-15T20:18:59.725Z,-5.53
2022-12-15T20:21:34.054Z,-5.54
2022-12-15T20:24:09.557Z,-5.53
2022-12-15T20:26:41.982Z,-5.56
2022-12-15T20:29:24.933Z,-5.63
2022-12-15T20:31:59.332Z,-5.63
2022-12-15T20:34:29.610Z,-5.68
2022-12-15T20:37:02.133Z,-5.60
2022-12-15T20:39:33.464Z,-5.66
2022-12-15T20:42:04.329Z,-5.71
2022-12-15T20:44:36.941Z,-5.73
2022-12-15T20:47:22.255Z,-5.68
2022-12-15T20:49:53.116Z,-5.57
2022-12-15T20:52:25.557Z,-5.68
2022-12-15T20:54:56.943Z,-5.72
2022-12-15T20:57:27.398Z,-5.73
2022-12-15T21:00:08.455Z,-5.77
2022-12-15T21:02:52.100Z,-5.85
2022-12-15T21:05:27.070Z,-5.85
2022-12-15T21:07:59.146Z,-5.88
2022-12-15T21:10:29.926Z,-5.82
2022-12-15T21:13:00.352Z,-5.84
2022-12-15T21:15:30.488Z,-5.76
2022-12-15T21:18:46.642Z,-5.80
2022-12-15T21:20:55.872Z,-5.75
2022-12-15T21:23:33.265Z,-5.70
2022-12-15T21:26:16.469Z,-5.68
2022-12-15T21:28:53.890Z,-5.79
2022-12-15T21:31:37.845Z,-5.86
2022-12-15T21:34:25.597Z,-5.58
2022-12-15T21:36:56.497Z,-5.55
2022-12-15T21:39:31.014Z,-5.58
2022-12-15T21:42:03.277Z,-5.55
2022-12-15T21:44:33.698Z,-5.49
2022-12-15T21:47:03.731Z,-5.69
2022-12-15T21:49:37.143Z,-5.75
2022-12-15T21:52:19.071Z,-5.64
2022-12-15T21:54:50.881Z,-5.58
2022-12-15T21:58:04.539Z,-5.62
2022-12-15T22:01:16.558Z,-5.66
2022-12-15T22:03:57.598Z,-5.67
2022-12-15T22:06:36.228Z,-5.66
2022-12-15T22:09:09.514Z,-5.72
2022-12-15T22:11:51.242Z,-5.71
2022-12-15T22:14:35.545Z,-5.69
2022-12-15T22:17:18.726Z,-5.70
2022-12-15T22:19:51.349Z,-5.90
2022-12-15T22:22:31.625Z,-6.23
2022-12-15T22:25:17.758Z,-5.96
2022-12-15T22:27:55.132Z,-5.88
2022-12-15T22:30:27.996Z,-5.86
2022-12-15T22:33:01.330Z,-5.84
2022-12-15T22:35:38.559Z,-5.84
2022-12-15T22:38:14.066Z,-5.82
2022-12-15T22:40:52.980Z,-5.91
2022-12-15T22:43:38.994Z,-5.75
2022-12-15T22:46:14.259Z,-5.68
2022-12-15T22:48:48.465Z,-5.65
2022-12-15T22:51:19.944Z,-5.76
2022-12-15T22:53:52.904Z,-5.84
2022-12-15T22:56:30.620Z,-6.15
2022-12-15T22:59:05.487Z,-6.29
2022-12-15T23:01:35.642Z,-6.19
2022-12-15T23:04:06.819Z,-6.13
2022-12-15T23:06:36.935Z,-6.13
2022-12-15T23:09:10.064Z,-6.13
2022-12-15T23:11:37.379Z,-6.30
2022-12-15T23:14:13.833Z,-6.40
2022-12-15T23:16:42.323Z,-6.47
2022-12-15T23:19:23.831Z,-6.32
2022-12-15T23:21:54.818Z,-6.33
2022-12-15T23:24:27.616Z,-6.76
2022-12-15T23:26:57.533Z,-6.55
2022-12-15T23:29:27.788Z,-6.49
2022-12-15T23:31:58.318Z,-6.39
2022-12-15T23:34:28.569Z,-6.26
2022-12-15T23:36:58.501Z,-6.30
2022-12-15T23:39:31.560Z,-6.34
2022-12-15T23:42:01.700Z,-6.29
2022-12-15T23:44:31.982Z,-6.25
2022-12-15T23:47:02.021Z,-6.25
2022-12-15T23:49:32.377Z,-6.25
2022-12-15T23:52:02.342Z,-6.23
2022-12-15T23:54:35.186Z,-6.24
2022-12-15T23:57:06.739Z,-6.25
2022-12-15T23:59:37.109Z,-6.37
